sensor_id;sensor_type;location;lat;lon;timestamp;pressure;altitude;pressure_sealevel;temperature;humidity
26563;BME280;14217;50.986;5.826;2023-08-12T00:00:48;101181.25;;;26.47;49.11
26563;BME280;14217;50.986;5.826;2023-08-12T00:05:51;101187.63;;;26.46;49.24
26563;BME280;14217;50.986;5.826;2023-08-12T00:10:54;101188.69;;;26.44;49.24
26563;BME280;14217;50.986;5.826;2023-08-12T00:15:55;101185.88;;;26.45;49.25
26563;BME280;14217;50.986;5.826;2023-08-12T00:20:57;101180.41;;;26.47;49.29
26563;BME280;14217;50.986;5.826;2023-08-12T00:26:00;101173.19;;;26.47;49.10
26563;BME280;14217;50.986;5.826;2023-08-12T00:31:02;101156.22;;;26.47;49.07
26563;BME280;14217;50.986;5.826;2023-08-12T00:36:04;101166.22;;;26.45;49.28
26563;BME280;14217;50.986;5.826;2023-08-12T00:41:06;101153.44;;;26.48;48.96
26563;BME280;14217;50.986;5.826;2023-08-12T00:46:08;101151.69;;;26.47;49.00
26563;BME280;14217;50.986;5.826;2023-08-12T00:51:11;101144.28;;;26.51;49.04
26563;BME280;14217;50.986;5.826;2023-08-12T00:56:13;101135.13;;;26.53;48.53
26563;BME280;14217;50.986;5.826;2023-08-12T01:01:16;101130.75;;;26.52;48.66
26563;BME280;14217;50.986;5.826;2023-08-12T01:06:19;101127.41;;;26.49;49.05
26563;BME280;14217;50.986;5.826;2023-08-12T01:17:00;101118.16;;;26.53;48.57
26563;BME280;14217;50.986;5.826;2023-08-12T01:22:08;101117.16;;;26.54;48.72
26563;BME280;14217;50.986;5.826;2023-08-12T01:27:12;101108.50;;;26.50;48.65
26563;BME280;14217;50.986;5.826;2023-08-12T01:32:37;101111.69;;;26.55;48.52
26563;BME280;14217;50.986;5.826;2023-08-12T01:37:42;101109.78;;;26.58;48.75
26563;BME280;14217;50.986;5.826;2023-08-12T01:42:45;101102.72;;;26.56;48.58
26563;BME280;14217;50.986;5.826;2023-08-12T01:47:48;101102.72;;;26.56;48.42
26563;BME280;14217;50.986;5.826;2023-08-12T01:52:52;101084.63;;;26.59;48.27
26563;BME280;14217;50.986;5.826;2023-08-12T01:57:55;101089.88;;;26.60;48.53
26563;BME280;14217;50.986;5.826;2023-08-12T02:02:57;101085.25;;;26.62;48.29
26563;BME280;14217;50.986;5.826;2023-08-12T02:07:59;101080.97;;;26.60;48.18
26563;BME280;14217;50.986;5.826;2023-08-12T02:13:02;101080.53;;;26.53;48.62
26563;BME280;14217;50.986;5.826;2023-08-12T02:18:05;101075.06;;;26.54;48.49
26563;BME280;14217;50.986;5.826;2023-08-12T02:23:07;101057.75;;;26.59;48.39
26563;BME280;14217;50.986;5.826;2023-08-12T02:28:09;101059.47;;;26.60;48.62
26563;BME280;14217;50.986;5.826;2023-08-12T02:33:11;101048.41;;;26.51;48.93
26563;BME280;14217;50.986;5.826;2023-08-12T02:38:13;101044.63;;;26.54;48.63
26563;BME280;14217;50.986;5.826;2023-08-12T02:43:16;101045.72;;;26.51;48.66
26563;BME280;14217;50.986;5.826;2023-08-12T02:48:18;101034.97;;;26.51;48.66
26563;BME280;14217;50.986;5.826;2023-08-12T02:53:20;101024.69;;;26.45;48.90
26563;BME280;14217;50.986;5.826;2023-08-12T02:58:22;101018.09;;;26.49;48.87
26563;BME280;14217;50.986;5.826;2023-08-12T03:03:24;101011.03;;;26.48;48.56
26563;BME280;14217;50.986;5.826;2023-08-12T03:08:26;101004.56;;;26.51;48.82
26563;BME280;14217;50.986;5.826;2023-08-12T03:13:29;101010.56;;;26.54;48.38
26563;BME280;14217;50.986;5.826;2023-08-12T03:18:31;101011.63;;;26.52;48.83
26563;BME280;14217;50.986;5.826;2023-08-12T03:23:37;101010.88;;;26.50;48.71
26563;BME280;14217;50.986;5.826;2023-08-12T03:28:39;101011.03;;;26.48;48.84
26563;BME280;14217;50.986;5.826;2023-08-12T03:33:41;100998.09;;;26.53;48.82
26563;BME280;14217;50.986;5.826;2023-08-12T03:38:43;100992.81;;;26.52;48.64
26563;BME280;14217;50.986;5.826;2023-08-12T03:43:45;100985.63;;;26.52;48.57
26563;BME280;14217;50.986;5.826;2023-08-12T03:48:47;100973.72;;;26.56;48.64
26563;BME280;14217;50.986;5.826;2023-08-12T03:53:50;100964.31;;;26.62;48.42
26563;BME280;14217;50.986;5.826;2023-08-12T03:58:52;100962.47;;;26.63;48.33
26563;BME280;14217;50.986;5.826;2023-08-12T04:03:54;100954.00;;;26.56;48.51
26563;BME280;14217;50.986;5.826;2023-08-12T04:08:56;100958.50;;;26.55;48.63
26563;BME280;14217;50.986;5.826;2023-08-12T04:13:57;100955.63;;;26.59;48.44
26563;BME280;14217;50.986;5.826;2023-08-12T04:18:59;100953.44;;;26.64;48.39
26563;BME280;14217;50.986;5.826;2023-08-12T04:24:02;100955.03;;;26.66;48.33
26563;BME280;14217;50.986;5.826;2023-08-12T04:29:04;100946.59;;;26.60;48.36
26563;BME280;14217;50.986;5.826;2023-08-12T04:34:06;100942.31;;;26.57;48.43
26563;BME280;14217;50.986;5.826;2023-08-12T04:39:09;100929.50;;;26.61;48.64
26563;BME280;14217;50.986;5.826;2023-08-12T04:44:11;100935.94;;;26.58;48.59
26563;BME280;14217;50.986;5.826;2023-08-12T04:49:14;100927.66;;;26.61;48.49
26563;BME280;14217;50.986;5.826;2023-08-12T04:54:16;100925.09;;;26.71;49.86
26563;BME280;14217;50.986;5.826;2023-08-12T04:59:18;100942.50;;;26.54;51.48
26563;BME280;14217;50.986;5.826;2023-08-12T05:04:20;100939.25;;;26.62;52.54
26563;BME280;14217;50.986;5.826;2023-08-12T05:09:22;100941.97;;;26.73;53.23
26563;BME280;14217;50.986;5.826;2023-08-12T05:14:24;100944.53;;;26.74;53.29
26563;BME280;14217;50.986;5.826;2023-08-12T05:19:26;100945.88;;;26.69;53.73
26563;BME280;14217;50.986;5.826;2023-08-12T05:24:28;100938.06;;;26.66;53.91
26563;BME280;14217;50.986;5.826;2023-08-12T05:29:30;100935.38;;;26.66;53.49
26563;BME280;14217;50.986;5.826;2023-08-12T05:34:33;100930.47;;;26.71;53.20
26563;BME280;14217;50.986;5.826;2023-08-12T05:39:35;100920.72;;;26.70;53.02
26563;BME280;14217;50.986;5.826;2023-08-12T05:44:37;100926.09;;;26.70;52.84
26563;BME280;14217;50.986;5.826;2023-08-12T05:49:39;100917.28;;;26.68;52.73
26563;BME280;14217;50.986;5.826;2023-08-12T05:54:41;100923.50;;;26.68;52.54
26563;BME280;14217;50.986;5.826;2023-08-12T05:59:43;100918.13;;;26.68;52.65
26563;BME280;14217;50.986;5.826;2023-08-12T06:04:45;100912.75;;;26.68;52.74
26563;BME280;14217;50.986;5.826;2023-08-12T06:09:47;100906.66;;;26.66;52.87
26563;BME280;14217;50.986;5.826;2023-08-12T06:14:50;100878.44;;;26.61;52.92
26563;BME280;14217;50.986;5.826;2023-08-12T06:19:52;100881.84;;;26.63;52.70
26563;BME280;14217;50.986;5.826;2023-08-12T06:24:54;100879.41;;;26.60;53.52
26563;BME280;14217;50.986;5.826;2023-08-12T06:29:56;100884.78;;;26.60;54.38
26563;BME280;14217;50.986;5.826;2023-08-12T06:34:57;100893.69;;;26.60;54.67
26563;BME280;14217;50.986;5.826;2023-08-12T06:39:59;100887.72;;;26.56;54.93
26563;BME280;14217;50.986;5.826;2023-08-12T06:45:02;100897.69;;;26.54;55.10
26563;BME280;14217;50.986;5.826;2023-08-12T06:50:06;100892.31;;;26.54;54.80
26563;BME280;14217;50.986;5.826;2023-08-12T06:55:08;100893.28;;;26.53;55.38
26563;BME280;14217;50.986;5.826;2023-08-12T07:00:10;100891.34;;;26.55;55.50
26563;BME280;14217;50.986;5.826;2023-08-12T07:05:12;100904.78;;;26.55;55.55
26563;BME280;14217;50.986;5.826;2023-08-12T07:10:14;100898.28;;;26.47;55.81
26563;BME280;14217;50.986;5.826;2023-08-12T07:15:16;100899.25;;;26.46;55.93
26563;BME280;14217;50.986;5.826;2023-08-12T07:20:18;100896.09;;;26.52;55.89
26563;BME280;14217;50.986;5.826;2023-08-12T07:25:20;100883.38;;;26.43;56.12
26563;BME280;14217;50.986;5.826;2023-08-12T07:30:22;100882.28;;;26.45;56.31
26563;BME280;14217;50.986;5.826;2023-08-12T07:35:24;100884.97;;;26.45;56.19
26563;BME280;14217;50.986;5.826;2023-08-12T07:40:26;100871.78;;;26.42;56.31
26563;BME280;14217;50.986;5.826;2023-08-12T07:45:29;100873.00;;;26.49;55.85
26563;BME280;14217;50.986;5.826;2023-08-12T07:50:31;100870.94;;;26.53;56.32
26563;BME280;14217;50.986;5.826;2023-08-12T07:55:34;100884.91;;;26.58;55.80
26563;BME280;14217;50.986;5.826;2023-08-12T08:00:36;100873.06;;;26.61;55.63
26563;BME280;14217;50.986;5.826;2023-08-12T08:05:41;100882.09;;;26.60;55.51
26563;BME280;14217;50.986;5.826;2023-08-12T08:10:43;100878.56;;;26.59;55.28
26563;BME280;14217;50.986;5.826;2023-08-12T08:15:46;100878.66;;;26.58;55.25
26563;BME280;14217;50.986;5.826;2023-08-12T08:20:48;100878.66;;;26.58;54.92
26563;BME280;14217;50.986;5.826;2023-08-12T08:25:50;100884.41;;;26.64;54.82
26563;BME280;14217;50.986;5.826;2023-08-12T08:30:52;100885.78;;;26.59;54.79
26563;BME280;14217;50.986;5.826;2023-08-12T08:35:55;100905.31;;;26.61;54.71
26563;BME280;14217;50.986;5.826;2023-08-12T08:40:57;100900.53;;;26.64;54.39
26563;BME280;14217;50.986;5.826;2023-08-12T08:46:00;100914.97;;;26.63;54.98
26563;BME280;14217;50.986;5.826;2023-08-12T08:51:03;100919.88;;;26.45;55.60
26563;BME280;14217;50.986;5.826;2023-08-12T08:56:08;100916.28;;;26.58;55.17
26563;BME280;14217;50.986;5.826;2023-08-12T09:01:19;100917.28;;;26.79;54.55
26563;BME280;14217;50.986;5.826;2023-08-12T09:06:25;100907.28;;;26.81;53.92
26563;BME280;14217;50.986;5.826;2023-08-12T09:11:27;100907.28;;;26.81;53.95
26563;BME280;14217;50.986;5.826;2023-08-12T09:16:29;100919.75;;;26.82;53.80
26563;BME280;14217;50.986;5.826;2023-08-12T09:21:31;100915.34;;;26.81;53.50
26563;BME280;14217;50.986;5.826;2023-08-12T09:26:34;100915.72;;;26.76;53.36
26563;BME280;14217;50.986;5.826;2023-08-12T09:31:36;100911.81;;;26.81;52.98
26563;BME280;14217;50.986;5.826;2023-08-12T09:36:38;100918.03;;;26.81;52.87
26563;BME280;14217;50.986;5.826;2023-08-12T09:41:40;100932.69;;;26.77;52.86
26563;BME280;14217;50.986;5.826;2023-08-12T09:46:42;100919.97;;;26.79;52.60
26563;BME280;14217;50.986;5.826;2023-08-12T09:51:44;100927.81;;;26.82;52.54
26563;BME280;14217;50.986;5.826;2023-08-12T09:56:48;100920.50;;;26.84;52.39
26563;BME280;14217;50.986;5.826;2023-08-12T10:01:52;100911.69;;;26.82;52.34
26563;BME280;14217;50.986;5.826;2023-08-12T10:06:55;100916.06;;;26.83;52.17
26563;BME280;14217;50.986;5.826;2023-08-12T10:11:57;100913.03;;;26.88;51.79
26563;BME280;14217;50.986;5.826;2023-08-12T10:17:00;100914.97;;;26.86;52.13
26563;BME280;14217;50.986;5.826;2023-08-12T10:22:08;100914.84;;;26.87;51.93
26563;BME280;14217;50.986;5.826;2023-08-12T10:27:12;100907.78;;;26.86;51.97
26563;BME280;14217;50.986;5.826;2023-08-12T10:32:14;100923.56;;;26.91;52.03
26563;BME280;14217;50.986;5.826;2023-08-12T10:37:17;100911.94;;;26.90;51.82
26563;BME280;14217;50.986;5.826;2023-08-12T10:42:41;100918.66;;;26.85;51.92
26563;BME280;14217;50.986;5.826;2023-08-12T10:48:10;100916.94;;;26.84;51.80
26563;BME280;14217;50.986;5.826;2023-08-12T10:53:29;100908.00;;;26.83;51.69
26563;BME280;14217;50.986;5.826;2023-08-12T10:58:41;100906.06;;;26.85;51.55
26563;BME280;14217;50.986;5.826;2023-08-12T11:03:48;100899.72;;;26.86;51.39
26563;BME280;14217;50.986;5.826;2023-08-12T11:08:53;100905.09;;;26.86;51.43
26563;BME280;14217;50.986;5.826;2023-08-12T11:13:58;100903.75;;;26.92;51.12
26563;BME280;14217;50.986;5.826;2023-08-12T11:19:00;100897.63;;;26.90;51.06
26563;BME280;14217;50.986;5.826;2023-08-12T11:24:03;100905.84;;;26.88;51.07
26563;BME280;14217;50.986;5.826;2023-08-12T11:29:10;100907.78;;;26.86;51.15
26563;BME280;14217;50.986;5.826;2023-08-12T11:34:13;100909.84;;;26.83;51.10
26563;BME280;14217;50.986;5.826;2023-08-12T11:39:15;100919.88;;;26.92;50.76
26563;BME280;14217;50.986;5.826;2023-08-12T11:44:22;100924.78;;;26.87;50.72
26563;BME280;14217;50.986;5.826;2023-08-12T11:49:24;100941.53;;;26.90;50.78
26563;BME280;14217;50.986;5.826;2023-08-12T11:54:26;100929.88;;;26.90;50.28
26563;BME280;14217;50.986;5.826;2023-08-12T11:59:30;100935.25;;;26.90;50.45
26563;BME280;14217;50.986;5.826;2023-08-12T12:04:33;100958.63;;;26.89;50.38
26563;BME280;14217;50.986;5.826;2023-08-12T12:09:36;100950.19;;;26.94;50.20
26563;BME280;14217;50.986;5.826;2023-08-12T12:14:38;100945.69;;;26.94;50.03
26563;BME280;14217;50.986;5.826;2023-08-12T12:19:40;100939.91;;;26.88;50.26
26563;BME280;14217;50.986;5.826;2023-08-12T12:24:47;100940.63;;;26.90;50.51
26563;BME280;14217;50.986;5.826;2023-08-12T12:29:49;100947.38;;;26.95;50.45
26563;BME280;14217;50.986;5.826;2023-08-12T12:34:51;100955.19;;;26.87;50.50
26563;BME280;14217;50.986;5.826;2023-08-12T12:39:54;100951.06;;;26.94;50.18
26563;BME280;14217;50.986;5.826;2023-08-12T12:44:56;100966.19;;;26.95;50.18
26563;BME280;14217;50.986;5.826;2023-08-12T12:49:58;100964.50;;;26.94;50.05
26563;BME280;14217;50.986;5.826;2023-08-12T12:55:00;100967.78;;;26.98;50.09
26563;BME280;14217;50.986;5.826;2023-08-12T13:00:06;100975.38;;;26.93;50.77
26563;BME280;14217;50.986;5.826;2023-08-12T13:05:12;100980.63;;;26.94;50.82
26563;BME280;14217;50.986;5.826;2023-08-12T13:10:14;100976.34;;;26.92;51.26
26563;BME280;14217;50.986;5.826;2023-08-12T13:15:16;100983.06;;;26.97;50.84
26563;BME280;14217;50.986;5.826;2023-08-12T13:20:18;100985.75;;;26.97;51.00
26563;BME280;14217;50.986;5.826;2023-08-12T13:25:20;100973.41;;;26.95;50.48
26563;BME280;14217;50.986;5.826;2023-08-12T13:30:22;100987.81;;;26.94;50.63
26563;BME280;14217;50.986;5.826;2023-08-12T13:35:24;100986.97;;;26.93;50.61
26563;BME280;14217;50.986;5.826;2023-08-12T13:40:26;100995.78;;;26.95;50.23
26563;BME280;14217;50.986;5.826;2023-08-12T13:45:29;100995.78;;;26.95;50.45
26563;BME280;14217;50.986;5.826;2023-08-12T13:50:31;100998.56;;;26.94;50.36
26563;BME280;14217;50.986;5.826;2023-08-12T13:55:34;100989.44;;;26.96;50.27
26563;BME280;14217;50.986;5.826;2023-08-12T14:00:36;101000.31;;;26.95;50.13
26563;BME280;14217;50.986;5.826;2023-08-12T14:05:38;100990.19;;;26.99;50.28
26563;BME280;14217;50.986;5.826;2023-08-12T14:10:40;101004.84;;;26.94;50.39
26563;BME280;14217;50.986;5.826;2023-08-12T14:15:42;101004.09;;;26.92;49.86
26563;BME280;14217;50.986;5.826;2023-08-12T14:20:44;101008.25;;;26.96;49.92
26563;BME280;14217;50.986;5.826;2023-08-12T14:25:46;101007.28;;;26.97;50.05
26563;BME280;14217;50.986;5.826;2023-08-12T14:30:48;101025.34;;;26.95;49.71
26563;BME280;14217;50.986;5.826;2023-08-12T14:35:51;101015.34;;;26.97;49.63
26563;BME280;14217;50.986;5.826;2023-08-12T14:40:54;101018.13;;;26.96;49.52
26563;BME280;14217;50.986;5.826;2023-08-12T14:45:56;101010.81;;;26.98;49.69
26563;BME280;14217;50.986;5.826;2023-08-12T14:50:58;101003.00;;;26.95;49.95
26563;BME280;14217;50.986;5.826;2023-08-12T14:56:00;100992.97;;;26.97;50.17
26563;BME280;14217;50.986;5.826;2023-08-12T15:01:03;100992.88;;;26.99;50.09
26563;BME280;14217;50.986;5.826;2023-08-12T15:06:05;100994.47;;;27.01;49.95
26563;BME280;14217;50.986;5.826;2023-08-12T15:11:07;100982.81;;;27.01;49.81
26563;BME280;14217;50.986;5.826;2023-08-12T15:16:09;100972.31;;;26.97;49.79
26563;BME280;14217;50.986;5.826;2023-08-12T15:21:12;100969.75;;;26.96;50.15
26563;BME280;14217;50.986;5.826;2023-08-12T15:26:14;100959.88;;;26.96;49.98
26563;BME280;14217;50.986;5.826;2023-08-12T15:31:17;100961.19;;;27.02;50.40
26563;BME280;14217;50.986;5.826;2023-08-12T15:36:19;100968.53;;;27.00;50.27
26563;BME280;14217;50.986;5.826;2023-08-12T15:41:20;100974.91;;;26.99;49.92
26563;BME280;14217;50.986;5.826;2023-08-12T15:46:24;100986.50;;;27.00;49.23
26563;BME280;14217;50.986;5.826;2023-08-12T15:51:26;100971.34;;;26.99;48.82
26563;BME280;14217;50.986;5.826;2023-08-12T15:56:28;100977.69;;;26.97;47.99
26563;BME280;14217;50.986;5.826;2023-08-12T16:01:34;100980.50;;;26.96;47.43
26563;BME280;14217;50.986;5.826;2023-08-12T16:06:37;100977.81;;;26.96;47.09
26563;BME280;14217;50.986;5.826;2023-08-12T16:11:39;100972.56;;;26.94;46.36
26563;BME280;14217;50.986;5.826;2023-08-12T16:16:41;100975.00;;;26.97;46.29
26563;BME280;14217;50.986;5.826;2023-08-12T16:21:43;100970.84;;;26.93;46.05
26563;BME280;14217;50.986;5.826;2023-08-12T16:26:45;100964.13;;;26.99;45.53
26563;BME280;14217;50.986;5.826;2023-08-12T16:31:48;100975.47;;;27.03;45.60
26563;BME280;14217;50.986;5.826;2023-08-12T16:36:50;100968.41;;;27.02;45.42
26563;BME280;14217;50.986;5.826;2023-08-12T16:42:12;100974.91;;;26.99;45.30
26563;BME280;14217;50.986;5.826;2023-08-12T16:47:14;100974.91;;;26.99;45.30
26563;BME280;14217;50.986;5.826;2023-08-12T16:52:16;100967.69;;;27.00;45.11
26563;BME280;14217;50.986;5.826;2023-08-12T16:57:18;100976.59;;;27.00;44.94
26563;BME280;14217;50.986;5.826;2023-08-12T17:02:20;100976.97;;;26.95;44.95
26563;BME280;14217;50.986;5.826;2023-08-12T17:07:23;100978.16;;;26.91;43.83
26563;BME280;14217;50.986;5.826;2023-08-12T17:12:25;100976.97;;;26.95;44.11
26563;BME280;14217;50.986;5.826;2023-08-12T17:17:27;100984.53;;;26.90;44.06
26563;BME280;14217;50.986;5.826;2023-08-12T17:22:29;100982.91;;;26.88;42.36
26563;BME280;14217;50.986;5.826;2023-08-12T17:27:31;100973.06;;;26.88;41.26
26563;BME280;14217;50.986;5.826;2023-08-12T17:32:33;100980.13;;;26.89;41.58
26563;BME280;14217;50.986;5.826;2023-08-12T17:37:39;100993.69;;;26.88;40.94
26563;BME280;14217;50.986;5.826;2023-08-12T17:42:41;100986.72;;;26.85;40.66
26563;BME280;14217;50.986;5.826;2023-08-12T17:47:57;100993.09;;;26.84;40.89
26563;BME280;14217;50.986;5.826;2023-08-12T17:52:59;100996.25;;;26.89;40.47
26563;BME280;14217;50.986;5.826;2023-08-12T17:58:01;100995.41;;;26.89;40.61
26563;BME280;14217;50.986;5.826;2023-08-12T18:03:03;100993.31;;;26.81;40.20
26563;BME280;14217;50.986;5.826;2023-08-12T18:08:05;101004.19;;;26.80;39.86
26563;BME280;14217;50.986;5.826;2023-08-12T18:13:07;101003.84;;;26.84;40.02
26563;BME280;14217;50.986;5.826;2023-08-12T18:18:09;101002.94;;;26.84;40.05
26563;BME280;14217;50.986;5.826;2023-08-12T18:23:11;101018.59;;;26.79;39.97
26563;BME280;14217;50.986;5.826;2023-08-12T18:28:16;101022.13;;;26.79;40.03
26563;BME280;14217;50.986;5.826;2023-08-12T18:33:18;101020.19;;;26.81;40.24
26563;BME280;14217;50.986;5.826;2023-08-12T18:38:20;101031.78;;;26.82;40.49
26563;BME280;14217;50.986;5.826;2023-08-12T18:43:22;101036.69;;;26.76;40.93
26563;BME280;14217;50.986;5.826;2023-08-12T18:48:25;101036.47;;;26.80;41.25
26563;BME280;14217;50.986;5.826;2023-08-12T18:53:27;101036.47;;;26.80;41.32
26563;BME280;14217;50.986;5.826;2023-08-12T18:58:31;101045.22;;;26.82;41.48
26563;BME280;14217;50.986;5.826;2023-08-12T19:03:33;101049.75;;;26.81;41.65
26563;BME280;14217;50.986;5.826;2023-08-12T19:08:35;101053.44;;;26.80;41.94
26563;BME280;14217;50.986;5.826;2023-08-12T19:13:37;101063.56;;;26.76;42.22
26563;BME280;14217;50.986;5.826;2023-08-12T19:18:39;101076.78;;;26.80;42.07
26563;BME280;14217;50.986;5.826;2023-08-12T19:23:41;101072.38;;;26.79;42.58
26563;BME280;14217;50.986;5.826;2023-08-12T19:28:43;101075.06;;;26.79;42.58
26563;BME280;14217;50.986;5.826;2023-08-12T19:33:45;101077.84;;;26.77;42.34
26563;BME280;14217;50.986;5.826;2023-08-12T19:38:50;101082.28;;;26.78;42.59
26563;BME280;14217;50.986;5.826;2023-08-12T19:43:52;101090.44;;;26.76;42.67
26563;BME280;14217;50.986;5.826;2023-08-12T19:48:54;101089.69;;;26.74;42.83
26563;BME280;14217;50.986;5.826;2023-08-12T19:53:56;101096.81;;;26.75;42.81
26563;BME280;14217;50.986;5.826;2023-08-12T19:58:58;101093.03;;;26.78;42.63
26563;BME280;14217;50.986;5.826;2023-08-12T20:04:00;101095.06;;;26.74;42.53
26563;BME280;14217;50.986;5.826;2023-08-12T20:09:02;101103.88;;;26.76;42.38
26563;BME280;14217;50.986;5.826;2023-08-12T20:14:04;101099.72;;;26.72;42.61
26563;BME280;14217;50.986;5.826;2023-08-12T20:19:06;101104.00;;;26.75;42.72
26563;BME280;14217;50.986;5.826;2023-08-12T20:24:08;101100.63;;;26.84;43.19
26563;BME280;14217;50.986;5.826;2023-08-12T20:29:10;101098.16;;;26.81;43.46
26563;BME280;14217;50.986;5.826;2023-08-12T20:34:12;101102.94;;;26.77;44.21
26563;BME280;14217;50.986;5.826;2023-08-12T20:39:14;101104.00;;;26.75;44.07
26563;BME280;14217;50.986;5.826;2023-08-12T20:44:16;101106.56;;;26.76;43.60
26563;BME280;14217;50.986;5.826;2023-08-12T20:49:18;101102.94;;;26.77;43.58
26563;BME280;14217;50.986;5.826;2023-08-12T20:54:20;101106.69;;;26.75;43.39
26563;BME280;14217;50.986;5.826;2023-08-12T20:59:22;101112.06;;;26.75;43.41
26563;BME280;14217;50.986;5.826;2023-08-12T21:04:24;101113.16;;;26.72;43.33
26563;BME280;14217;50.986;5.826;2023-08-12T21:09:26;101118.53;;;26.72;43.10
26563;BME280;14217;50.986;5.826;2023-08-12T21:14:29;101123.91;;;26.72;43.29
26563;BME280;14217;50.986;5.826;2023-08-12T21:19:31;101126.69;;;26.71;43.17
26563;BME280;14217;50.986;5.826;2023-08-12T21:24:33;101125.75;;;26.72;43.01
26563;BME280;14217;50.986;5.826;2023-08-12T21:29:35;101133.81;;;26.72;42.92
26563;BME280;14217;50.986;5.826;2023-08-12T21:34:37;101135.63;;;26.71;42.67
26563;BME280;14217;50.986;5.826;2023-08-12T21:39:39;101133.69;;;26.73;42.71
26563;BME280;14217;50.986;5.826;2023-08-12T21:44:41;101139.19;;;26.72;42.50
26563;BME280;14217;50.986;5.826;2023-08-12T21:49:44;101134.00;;;26.69;42.45
26563;BME280;14217;50.986;5.826;2023-08-12T21:54:46;101142.06;;;26.69;42.39
26563;BME280;14217;50.986;5.826;2023-08-12T21:59:48;101152.72;;;26.70;42.89
26563;BME280;14217;50.986;5.826;2023-08-12T22:04:50;101139.38;;;26.69;42.77
26563;BME280;14217;50.986;5.826;2023-08-12T22:09:52;101146.50;;;26.70;42.88
26563;BME280;14217;50.986;5.826;2023-08-12T22:14:54;101145.84;;;26.66;42.99
26563;BME280;14217;50.986;5.826;2023-08-12T22:19:56;101144.56;;;26.72;42.84
26563;BME280;14217;50.986;5.826;2023-08-12T22:24:58;101146.50;;;26.70;42.99
26563;BME280;14217;50.986;5.826;2023-08-12T22:30:00;101140.88;;;26.73;43.03
26563;BME280;14217;50.986;5.826;2023-08-12T22:35:06;101136.59;;;26.70;43.13
26563;BME280;14217;50.986;5.826;2023-08-12T22:40:09;101134.75;;;26.71;42.96
26563;BME280;14217;50.986;5.826;2023-08-12T22:45:11;101142.06;;;26.69;43.31
26563;BME280;14217;50.986;5.826;2023-08-12T22:50:13;101135.75;;;26.70;43.23
26563;BME280;14217;50.986;5.826;2023-08-12T22:55:16;101141.22;;;26.68;43.05
26563;BME280;14217;50.986;5.826;2023-08-12T23:00:18;101150.13;;;26.69;44.17
26563;BME280;14217;50.986;5.826;2023-08-12T23:05:21;101144.31;;;26.75;45.50
26563;BME280;14217;50.986;5.826;2023-08-12T23:10:22;101151.16;;;26.79;45.66
26563;BME280;14217;50.986;5.826;2023-08-12T23:15:25;101147.38;;;26.82;45.51
26563;BME280;14217;50.986;5.826;2023-08-12T23:20:27;101145.34;;;26.85;45.51
26563;BME280;14217;50.986;5.826;2023-08-12T23:25:29;101143.63;;;26.84;45.03
26563;BME280;14217;50.986;5.826;2023-08-12T23:30:31;101147.28;;;26.83;44.40
26563;BME280;14217;50.986;5.826;2023-08-12T23:35:33;101148.28;;;26.82;44.25
26563;BME280;14217;50.986;5.826;2023-08-12T23:40:35;101149.47;;;26.78;43.98
26563;BME280;14217;50.986;5.826;2023-08-12T23:45:38;101148.47;;;26.79;43.70
26563;BME280;14217;50.986;5.826;2023-08-12T23:50:40;101151.16;;;26.79;43.36
26563;BME280;14217;50.986;5.826;2023-08-12T23:55:42;101163.75;;;26.79;43.20
